sensor_id;sensor_type;location;lat;lon;timestamp;pressure;altitude;pressure_sealevel;temperature;humidity
46722;BME280;32455;43.430;23.136;2023-04-10T00:00:24;98446.09;;;4.88;100.00
46722;BME280;32455;43.430;23.136;2023-04-10T00:03:09;98449.53;;;5.12;100.00
46722;BME280;32455;43.430;23.136;2023-04-10T00:05:55;98441.72;;;5.10;100.00
46722;BME280;32455;43.430;23.136;2023-04-10T00:08:41;98458.63;;;5.17;100.00
46722;BME280;32455;43.430;23.136;2023-04-10T00:11:26;98434.91;;;5.08;100.00
46722;BME280;32455;43.430;23.136;2023-04-10T00:14:11;98444.41;;;4.87;100.00
46722;BME280;32455;43.430;23.136;2023-04-10T00:16:56;98444.03;;;4.75;100.00
46722;BME280;32455;43.430;23.136;2023-04-10T00:19:41;98419.53;;;4.80;100.00
46722;BME280;32455;43.430;23.136;2023-04-10T00:22:27;98425.91;;;5.09;100.00
46722;BME280;32455;43.430;23.136;2023-04-10T00:25:12;98434.44;;;5.04;100.00
46722;BME280;32455;43.430;23.136;2023-04-10T00:27:57;98423.94;;;4.88;100.00
46722;BME280;32455;43.430;23.136;2023-04-10T00:30:42;98422.56;;;4.92;100.00
46722;BME280;32455;43.430;23.136;2023-04-10T00:33:28;98424.53;;;5.13;100.00
46722;BME280;32455;43.430;23.136;2023-04-10T00:36:13;98427.31;;;5.19;100.00
46722;BME280;32455;43.430;23.136;2023-04-10T00:38:59;98422.13;;;5.03;100.00
46722;BME280;32455;43.430;23.136;2023-04-10T00:41:45;98419.41;;;4.73;100.00
46722;BME280;32455;43.430;23.136;2023-04-10T00:44:30;98417.63;;;4.89;100.00
46722;BME280;32455;43.430;23.136;2023-04-10T00:47:16;98421.63;;;5.22;100.00
46722;BME280;32455;43.430;23.136;2023-04-10T00:50:01;98418.19;;;4.99;100.00
46722;BME280;32455;43.430;23.136;2023-04-10T00:52:48;98411.38;;;4.96;100.00
46722;BME280;32455;43.430;23.136;2023-04-10T00:55:34;98395.13;;;4.91;100.00
46722;BME280;32455;43.430;23.136;2023-04-10T00:58:19;98407.81;;;5.04;100.00
46722;BME280;32455;43.430;23.136;2023-04-10T01:01:05;98395.50;;;5.03;100.00
46722;BME280;32455;43.430;23.136;2023-04-10T01:03:51;98413.75;;;5.44;100.00
46722;BME280;32455;43.430;23.136;2023-04-10T01:09:52;98414.47;;;5.23;100.00
46722;BME280;32455;43.430;23.136;2023-04-10T01:12:54;98413.44;;;5.24;100.00
46722;BME280;32455;43.430;23.136;2023-04-10T01:16:04;98411.06;;;5.44;100.00
46722;BME280;32455;43.430;23.136;2023-04-10T01:18:59;98407.84;;;5.19;100.00
46722;BME280;32455;43.430;23.136;2023-04-10T01:21:49;98402.59;;;5.25;100.00
46722;BME280;32455;43.430;23.136;2023-04-10T01:30:49;98399.75;;;5.42;100.00
46722;BME280;32455;43.430;23.136;2023-04-10T01:33:41;98418.13;;;5.51;100.00
46722;BME280;32455;43.430;23.136;2023-04-10T01:36:33;98410.59;;;5.25;100.00
46722;BME280;32455;43.430;23.136;2023-04-10T01:39:21;98392.22;;;5.16;100.00
46722;BME280;32455;43.430;23.136;2023-04-10T01:42:10;98412.72;;;5.45;100.00
46722;BME280;32455;43.430;23.136;2023-04-10T01:44:56;98405.75;;;5.44;100.00
46722;BME280;32455;43.430;23.136;2023-04-10T01:47:42;98403.59;;;5.24;100.00
46722;BME280;32455;43.430;23.136;2023-04-10T01:50:29;98408.13;;;5.24;100.00
46722;BME280;32455;43.430;23.136;2023-04-10T01:53:16;98412.88;;;5.28;100.00
46722;BME280;32455;43.430;23.136;2023-04-10T01:56:01;98403.88;;;5.30;100.00
46722;BME280;32455;43.430;23.136;2023-04-10T01:58:47;98417.19;;;5.30;100.00
46722;BME280;32455;43.430;23.136;2023-04-10T02:01:32;98408.75;;;5.11;100.00
46722;BME280;32455;43.430;23.136;2023-04-10T02:04:18;98391.75;;;5.12;100.00
46722;BME280;32455;43.430;23.136;2023-04-10T02:13:15;98397.19;;;5.48;100.00
46722;BME280;32455;43.430;23.136;2023-04-10T02:16:06;98377.41;;;5.13;100.00
46722;BME280;32455;43.430;23.136;2023-04-10T02:18:52;98379.88;;;5.00;100.00
46722;BME280;32455;43.430;23.136;2023-04-10T02:21:39;98388.69;;;5.00;100.00
46722;BME280;32455;43.430;23.136;2023-04-10T02:24:26;98378.44;;;5.12;100.00
46722;BME280;32455;43.430;23.136;2023-04-10T02:27:12;98374.75;;;5.13;100.00
46722;BME280;32455;43.430;23.136;2023-04-10T02:29:57;98378.53;;;5.34;100.00
46722;BME280;32455;43.430;23.136;2023-04-10T02:32:43;98393.16;;;5.52;100.00
46722;BME280;32455;43.430;23.136;2023-04-10T02:35:28;98376.50;;;5.21;100.00
46722;BME280;32455;43.430;23.136;2023-04-10T02:38:13;98356.19;;;4.90;100.00
46722;BME280;32455;43.430;23.136;2023-04-10T02:40:58;98369.25;;;5.15;100.00
46722;BME280;32455;43.430;23.136;2023-04-10T02:43:43;98373.22;;;5.19;100.00
46722;BME280;32455;43.430;23.136;2023-04-10T02:46:29;98357.22;;;5.34;100.00
46722;BME280;32455;43.430;23.136;2023-04-10T02:49:15;98374.84;;;5.49;100.00
46722;BME280;32455;43.430;23.136;2023-04-10T02:52:00;98375.41;;;5.45;100.00
46722;BME280;32455;43.430;23.136;2023-04-10T02:54:46;98361.06;;;5.01;100.00
46722;BME280;32455;43.430;23.136;2023-04-10T02:57:31;98353.81;;;4.95;100.00
46722;BME280;32455;43.430;23.136;2023-04-10T03:00:16;98340.56;;;4.87;100.00
46722;BME280;32455;43.430;23.136;2023-04-10T03:03:03;98374.31;;;5.24;100.00
46722;BME280;32455;43.430;23.136;2023-04-10T03:05:49;98354.47;;;5.27;100.00
46722;BME280;32455;43.430;23.136;2023-04-10T03:08:35;98363.91;;;5.30;100.00
46722;BME280;32455;43.430;23.136;2023-04-10T03:11:20;98369.16;;;4.93;100.00
46722;BME280;32455;43.430;23.136;2023-04-10T03:14:07;98360.28;;;4.78;100.00
46722;BME280;32455;43.430;23.136;2023-04-10T03:16:53;98362.28;;;4.61;100.00
46722;BME280;32455;43.430;23.136;2023-04-10T03:19:39;98368.56;;;4.83;100.00
46722;BME280;32455;43.430;23.136;2023-04-10T03:22:24;98378.03;;;5.00;100.00
46722;BME280;32455;43.430;23.136;2023-04-10T03:25:11;98373.47;;;4.94;100.00
46722;BME280;32455;43.430;23.136;2023-04-10T03:27:56;98371.75;;;4.64;100.00
46722;BME280;32455;43.430;23.136;2023-04-10T03:30:41;98378.22;;;4.84;100.00
46722;BME280;32455;43.430;23.136;2023-04-10T03:33:27;98376.94;;;4.80;100.00
46722;BME280;32455;43.430;23.136;2023-04-10T03:36:12;98386.53;;;4.43;100.00
46722;BME280;32455;43.430;23.136;2023-04-10T03:38:58;98376.25;;;4.40;100.00
46722;BME280;32455;43.430;23.136;2023-04-10T03:41:43;98387.44;;;4.36;100.00
46722;BME280;32455;43.430;23.136;2023-04-10T03:44:29;98354.56;;;4.06;100.00
46722;BME280;32455;43.430;23.136;2023-04-10T03:47:14;98390.38;;;4.18;100.00
46722;BME280;32455;43.430;23.136;2023-04-10T03:50:00;98377.59;;;3.90;100.00
46722;BME280;32455;43.430;23.136;2023-04-10T03:52:45;98401.16;;;4.24;100.00
46722;BME280;32455;43.430;23.136;2023-04-10T03:55:30;98406.16;;;4.19;100.00
46722;BME280;32455;43.430;23.136;2023-04-10T03:58:15;98379.69;;;3.72;100.00
46722;BME280;32455;43.430;23.136;2023-04-10T04:01:01;98393.53;;;4.21;100.00
46722;BME280;32455;43.430;23.136;2023-04-10T04:03:46;98392.75;;;4.36;100.00
46722;BME280;32455;43.430;23.136;2023-04-10T04:06:31;98403.06;;;3.76;100.00
46722;BME280;32455;43.430;23.136;2023-04-10T04:09:16;98400.56;;;3.83;100.00
46722;BME280;32455;43.430;23.136;2023-04-10T04:12:01;98402.66;;;4.19;100.00
46722;BME280;32455;43.430;23.136;2023-04-10T04:14:46;98393.00;;;4.26;100.00
46722;BME280;32455;43.430;23.136;2023-04-10T04:17:32;98408.47;;;3.99;100.00
46722;BME280;32455;43.430;23.136;2023-04-10T04:20:17;98405.22;;;4.35;100.00
46722;BME280;32455;43.430;23.136;2023-04-10T04:23:02;98408.19;;;4.17;100.00
46722;BME280;32455;43.430;23.136;2023-04-10T04:25:48;98408.72;;;4.13;100.00
46722;BME280;32455;43.430;23.136;2023-04-10T04:28:36;98411.94;;;4.00;100.00
46722;BME280;32455;43.430;23.136;2023-04-10T04:31:22;98415.00;;;4.20;100.00
46722;BME280;32455;43.430;23.136;2023-04-10T04:34:08;98408.94;;;4.26;100.00
46722;BME280;32455;43.430;23.136;2023-04-10T04:36:53;98414.47;;;4.24;100.00
46722;BME280;32455;43.430;23.136;2023-04-10T04:39:38;98392.16;;;4.48;100.00
46722;BME280;32455;43.430;23.136;2023-04-10T04:42:23;98398.84;;;4.67;100.00
46722;BME280;32455;43.430;23.136;2023-04-10T04:45:09;98403.09;;;4.76;100.00
46722;BME280;32455;43.430;23.136;2023-04-10T04:47:54;98399.97;;;4.88;100.00
46722;BME280;32455;43.430;23.136;2023-04-10T04:50:40;98400.28;;;5.08;100.00
46722;BME280;32455;43.430;23.136;2023-04-10T04:53:26;98421.09;;;5.27;100.00
46722;BME280;32455;43.430;23.136;2023-04-10T04:56:11;98411.50;;;5.33;100.00
46722;BME280;32455;43.430;23.136;2023-04-10T04:58:56;98415.56;;;5.43;100.00
46722;BME280;32455;43.430;23.136;2023-04-10T05:01:42;98407.94;;;5.55;100.00
46722;BME280;32455;43.430;23.136;2023-04-10T05:04:27;98418.94;;;5.82;100.00
46722;BME280;32455;43.430;23.136;2023-04-10T05:07:12;98419.09;;;6.10;100.00
46722;BME280;32455;43.430;23.136;2023-04-10T05:09:57;98435.75;;;6.33;100.00
46722;BME280;32455;43.430;23.136;2023-04-10T05:12:42;98432.59;;;6.44;100.00
46722;BME280;32455;43.430;23.136;2023-04-10T05:15:28;98440.75;;;6.58;100.00
46722;BME280;32455;43.430;23.136;2023-04-10T05:18:13;98421.50;;;6.62;100.00
46722;BME280;32455;43.430;23.136;2023-04-10T05:21:03;98437.63;;;6.75;100.00
46722;BME280;32455;43.430;23.136;2023-04-10T05:23:48;98436.69;;;6.83;100.00
46722;BME280;32455;43.430;23.136;2023-04-10T05:26:34;98428.22;;;6.80;100.00
46722;BME280;32455;43.430;23.136;2023-04-10T05:29:19;98425.53;;;6.80;100.00
46722;BME280;32455;43.430;23.136;2023-04-10T05:32:04;98450.69;;;6.85;100.00
46722;BME280;32455;43.430;23.136;2023-04-10T05:34:50;98447.44;;;6.90;100.00
46722;BME280;32455;43.430;23.136;2023-04-10T05:37:35;98459.09;;;6.89;100.00
46722;BME280;32455;43.430;23.136;2023-04-10T05:40:19;98459.75;;;6.91;100.00
46722;BME280;32455;43.430;23.136;2023-04-10T05:43:05;98452.13;;;6.88;100.00
46722;BME280;32455;43.430;23.136;2023-04-10T05:45:51;98446.16;;;6.86;100.00
46722;BME280;32455;43.430;23.136;2023-04-10T05:48:36;98447.69;;;6.95;100.00
46722;BME280;32455;43.430;23.136;2023-04-10T05:51:22;98452.06;;;7.02;100.00
46722;BME280;32455;43.430;23.136;2023-04-10T05:54:07;98450.53;;;6.93;100.00
46722;BME280;32455;43.430;23.136;2023-04-10T05:56:52;98458.28;;;6.67;100.00
46722;BME280;32455;43.430;23.136;2023-04-10T05:59:38;98456.03;;;6.85;100.00
46722;BME280;32455;43.430;23.136;2023-04-10T06:02:23;98445.13;;;6.87;100.00
46722;BME280;32455;43.430;23.136;2023-04-10T06:05:08;98455.22;;;7.13;100.00
46722;BME280;32455;43.430;23.136;2023-04-10T06:07:53;98459.78;;;7.19;100.00
46722;BME280;32455;43.430;23.136;2023-04-10T06:10:39;98465.19;;;7.25;100.00
46722;BME280;32455;43.430;23.136;2023-04-10T06:13:24;98445.41;;;7.20;100.00
46722;BME280;32455;43.430;23.136;2023-04-10T06:16:11;98449.00;;;7.34;100.00
46722;BME280;32455;43.430;23.136;2023-04-10T06:19:02;98445.09;;;7.36;100.00
46722;BME280;32455;43.430;23.136;2023-04-10T06:21:48;98451.47;;;7.70;100.00
46722;BME280;32455;43.430;23.136;2023-04-10T06:24:33;98462.94;;;7.98;100.00
46722;BME280;32455;43.430;23.136;2023-04-10T06:27:18;98432.91;;;7.62;100.00
46722;BME280;32455;43.430;23.136;2023-04-10T06:30:04;98452.22;;;7.57;100.00
46722;BME280;32455;43.430;23.136;2023-04-10T06:32:50;98449.59;;;7.64;100.00
46722;BME280;32455;43.430;23.136;2023-04-10T06:35:35;98447.16;;;7.69;100.00
46722;BME280;32455;43.430;23.136;2023-04-10T06:38:21;98461.31;;;7.97;100.00
46722;BME280;32455;43.430;23.136;2023-04-10T06:41:07;98449.19;;;8.08;100.00
46722;BME280;32455;43.430;23.136;2023-04-10T06:43:52;98452.63;;;8.37;100.00
46722;BME280;32455;43.430;23.136;2023-04-10T06:46:38;98458.09;;;8.22;100.00
46722;BME280;32455;43.430;23.136;2023-04-10T06:49:23;98451.88;;;8.08;100.00
46722;BME280;32455;43.430;23.136;2023-04-10T06:52:08;98461.44;;;7.83;100.00
46722;BME280;32455;43.430;23.136;2023-04-10T06:54:55;98464.81;;;7.98;100.00
46722;BME280;32455;43.430;23.136;2023-04-10T06:57:40;98465.63;;;7.98;100.00
46722;BME280;32455;43.430;23.136;2023-04-10T07:00:26;98467.09;;;8.01;100.00
46722;BME280;32455;43.430;23.136;2023-04-10T07:03:11;98478.63;;;8.49;100.00
46722;BME280;32455;43.430;23.136;2023-04-10T07:05:56;98479.53;;;8.83;100.00
46722;BME280;32455;43.430;23.136;2023-04-10T07:08:41;98468.78;;;8.70;100.00
46722;BME280;32455;43.430;23.136;2023-04-10T07:11:27;98483.81;;;8.64;100.00
46722;BME280;32455;43.430;23.136;2023-04-10T07:14:12;98470.66;;;8.69;100.00
46722;BME280;32455;43.430;23.136;2023-04-10T07:16:57;98477.28;;;8.87;100.00
46722;BME280;32455;43.430;23.136;2023-04-10T07:19:42;98473.75;;;8.86;100.00
46722;BME280;32455;43.430;23.136;2023-04-10T07:22:27;98475.00;;;9.10;100.00
46722;BME280;32455;43.430;23.136;2023-04-10T07:25:12;98478.09;;;9.27;100.00
46722;BME280;32455;43.430;23.136;2023-04-10T07:27:58;98483.69;;;9.25;100.00
46722;BME280;32455;43.430;23.136;2023-04-10T07:30:43;98483.06;;;9.30;100.00
46722;BME280;32455;43.430;23.136;2023-04-10T07:33:28;98486.97;;;9.14;100.00
46722;BME280;32455;43.430;23.136;2023-04-10T07:36:14;98473.38;;;9.09;100.00
46722;BME280;32455;43.430;23.136;2023-04-10T07:38:59;98483.88;;;8.91;100.00
46722;BME280;32455;43.430;23.136;2023-04-10T07:41:45;98482.00;;;9.11;100.00
46722;BME280;32455;43.430;23.136;2023-04-10T07:44:30;98487.19;;;9.33;100.00
46722;BME280;32455;43.430;23.136;2023-04-10T07:47:15;98481.22;;;9.31;100.00
46722;BME280;32455;43.430;23.136;2023-04-10T07:50:01;98484.69;;;9.44;100.00
46722;BME280;32455;43.430;23.136;2023-04-10T07:52:47;98484.88;;;9.69;100.00
46722;BME280;32455;43.430;23.136;2023-04-10T07:55:43;98482.56;;;9.79;100.00
46722;BME280;32455;43.430;23.136;2023-04-10T07:58:29;98495.13;;;9.92;100.00
46722;BME280;32455;43.430;23.136;2023-04-10T08:01:16;98485.63;;;9.96;100.00
46722;BME280;32455;43.430;23.136;2023-04-10T08:04:02;98494.13;;;9.87;100.00
46722;BME280;32455;43.430;23.136;2023-04-10T08:06:49;98479.91;;;9.79;100.00
46722;BME280;32455;43.430;23.136;2023-04-10T08:09:34;98500.09;;;9.95;100.00
46722;BME280;32455;43.430;23.136;2023-04-10T08:12:19;98479.00;;;10.06;100.00
46722;BME280;32455;43.430;23.136;2023-04-10T08:15:05;98496.13;;;10.11;100.00
46722;BME280;32455;43.430;23.136;2023-04-10T08:17:51;98472.38;;;10.08;100.00
46722;BME280;32455;43.430;23.136;2023-04-10T08:20:37;98489.47;;;10.27;100.00
46722;BME280;32455;43.430;23.136;2023-04-10T08:23:22;98487.69;;;10.01;100.00
46722;BME280;32455;43.430;23.136;2023-04-10T08:26:08;98491.94;;;10.35;100.00
46722;BME280;32455;43.430;23.136;2023-04-10T08:28:55;98493.34;;;10.44;100.00
46722;BME280;32455;43.430;23.136;2023-04-10T08:31:41;98489.25;;;10.35;100.00
46722;BME280;32455;43.430;23.136;2023-04-10T08:34:27;98498.59;;;10.26;100.00
46722;BME280;32455;43.430;23.136;2023-04-10T08:37:12;98492.72;;;10.42;100.00
46722;BME280;32455;43.430;23.136;2023-04-10T08:39:59;98487.59;;;9.36;100.00
46722;BME280;32455;43.430;23.136;2023-04-10T08:42:44;98488.31;;;9.96;100.00
46722;BME280;32455;43.430;23.136;2023-04-10T08:45:30;98496.09;;;10.18;100.00
46722;BME280;32455;43.430;23.136;2023-04-10T08:48:18;98471.84;;;10.44;100.00
46722;BME280;32455;43.430;23.136;2023-04-10T08:51:06;98478.69;;;10.78;100.00
46722;BME280;32455;43.430;23.136;2023-04-10T08:53:57;98491.78;;;11.00;100.00
46722;BME280;32455;43.430;23.136;2023-04-10T08:56:46;98494.78;;;10.85;100.00
46722;BME280;32455;43.430;23.136;2023-04-10T08:59:34;98483.84;;;10.80;100.00
46722;BME280;32455;43.430;23.136;2023-04-10T09:02:20;98474.09;;;10.86;100.00
46722;BME280;32455;43.430;23.136;2023-04-10T09:05:10;98466.16;;;10.97;100.00
46722;BME280;32455;43.430;23.136;2023-04-10T09:07:56;98483.19;;;11.41;100.00
46722;BME280;32455;43.430;23.136;2023-04-10T09:10:41;98478.97;;;11.52;100.00
46722;BME280;32455;43.430;23.136;2023-04-10T09:13:40;98476.00;;;11.35;100.00
46722;BME280;32455;43.430;23.136;2023-04-10T09:16:28;98445.22;;;11.31;100.00
46722;BME280;32455;43.430;23.136;2023-04-10T09:19:29;98467.28;;;11.15;100.00
46722;BME280;32455;43.430;23.136;2023-04-10T09:22:15;98462.34;;;11.55;100.00
46722;BME280;32455;43.430;23.136;2023-04-10T09:25:02;98474.41;;;11.52;99.15
46722;BME280;32455;43.430;23.136;2023-04-10T09:28:01;98462.34;;;11.55;96.32
46722;BME280;32455;43.430;23.136;2023-04-10T09:30:48;98471.75;;;11.46;100.00
46722;BME280;32455;43.430;23.136;2023-04-10T09:33:33;98456.16;;;11.54;99.91
46722;BME280;32455;43.430;23.136;2023-04-10T09:36:19;98456.09;;;11.18;100.00
46722;BME280;32455;43.430;23.136;2023-04-10T09:39:05;98462.50;;;11.60;99.16
46722;BME280;32455;43.430;23.136;2023-04-10T09:41:52;98447.22;;;11.61;97.59
46722;BME280;32455;43.430;23.136;2023-04-10T09:44:41;98448.47;;;11.76;98.55
46722;BME280;32455;43.430;23.136;2023-04-10T09:47:27;98459.31;;;11.95;99.47
46722;BME280;32455;43.430;23.136;2023-04-10T09:50:12;98451.66;;;11.92;97.93
46722;BME280;32455;43.430;23.136;2023-04-10T09:52:57;98434.69;;;12.10;96.89
46722;BME280;32455;43.430;23.136;2023-04-10T09:55:42;98435.25;;;12.12;91.14
46722;BME280;32455;43.430;23.136;2023-04-10T09:58:28;98441.47;;;12.31;91.07
46722;BME280;32455;43.430;23.136;2023-04-10T10:01:14;98441.34;;;12.37;95.40
46722;BME280;32455;43.430;23.136;2023-04-10T10:04:01;98439.81;;;12.11;91.72
46722;BME280;32455;43.430;23.136;2023-04-10T10:06:48;98444.13;;;12.00;88.94
46722;BME280;32455;43.430;23.136;2023-04-10T10:09:34;98446.13;;;12.53;90.34
46722;BME280;32455;43.430;23.136;2023-04-10T10:12:25;98432.88;;;12.52;84.92
46722;BME280;32455;43.430;23.136;2023-04-10T10:15:37;98411.38;;;12.34;88.92
46722;BME280;32455;43.430;23.136;2023-04-10T10:18:44;98438.81;;;12.72;84.79
46722;BME280;32455;43.430;23.136;2023-04-10T10:21:32;98400.28;;;11.93;90.22
46722;BME280;32455;43.430;23.136;2023-04-10T10:24:19;98400.31;;;12.53;90.64
46722;BME280;32455;43.430;23.136;2023-04-10T10:27:08;98411.09;;;13.07;86.47
46722;BME280;32455;43.430;23.136;2023-04-10T10:29:55;98414.00;;;13.06;85.66
46722;BME280;32455;43.430;23.136;2023-04-10T10:32:44;98411.56;;;13.04;83.76
46722;BME280;32455;43.430;23.136;2023-04-10T10:35:30;98406.47;;;12.84;87.54
46722;BME280;32455;43.430;23.136;2023-04-10T10:38:17;98392.66;;;12.92;83.56
46722;BME280;32455;43.430;23.136;2023-04-10T10:41:12;98405.84;;;13.47;72.90
46722;BME280;32455;43.430;23.136;2023-04-10T10:44:15;98399.63;;;13.12;70.85
46722;BME280;32455;43.430;23.136;2023-04-10T10:47:26;98385.56;;;13.33;73.71
46722;BME280;32455;43.430;23.136;2023-04-10T10:50:12;98393.22;;;12.83;74.48
46722;BME280;32455;43.430;23.136;2023-04-10T10:52:58;98391.19;;;13.32;69.62
46722;BME280;32455;43.430;23.136;2023-04-10T10:55:45;98382.75;;;13.28;67.54
46722;BME280;32455;43.430;23.136;2023-04-10T10:58:50;98386.03;;;13.30;71.99
46722;BME280;32455;43.430;23.136;2023-04-10T11:01:36;98384.06;;;14.01;65.69
46722;BME280;32455;43.430;23.136;2023-04-10T11:04:46;98386.69;;;13.84;63.46
46722;BME280;32455;43.430;23.136;2023-04-10T11:11:05;98369.38;;;13.33;62.30
46722;BME280;32455;43.430;23.136;2023-04-10T11:16:41;98368.53;;;13.44;64.76
46722;BME280;32455;43.430;23.136;2023-04-10T11:19:27;98361.84;;;13.70;68.12
46722;BME280;32455;43.430;23.136;2023-04-10T11:22:12;98361.63;;;14.00;65.07
46722;BME280;32455;43.430;23.136;2023-04-10T11:24:59;98361.94;;;14.04;64.22
46722;BME280;32455;43.430;23.136;2023-04-10T11:27:46;98361.50;;;13.95;62.80
46722;BME280;32455;43.430;23.136;2023-04-10T11:30:35;98347.41;;;13.53;64.21
46722;BME280;32455;43.430;23.136;2023-04-10T11:33:20;98351.41;;;13.50;62.80
46722;BME280;32455;43.430;23.136;2023-04-10T11:36:05;98350.44;;;13.68;64.78
46722;BME280;32455;43.430;23.136;2023-04-10T11:39:03;98358.41;;;13.75;59.81
46722;BME280;32455;43.430;23.136;2023-04-10T11:41:59;98336.16;;;13.96;58.32
46722;BME280;32455;43.430;23.136;2023-04-10T11:44:45;98325.06;;;14.10;59.92
46722;BME280;32455;43.430;23.136;2023-04-10T11:47:30;98332.88;;;14.23;61.98
46722;BME280;32455;43.430;23.136;2023-04-10T11:50:18;98332.81;;;14.06;62.29
46722;BME280;32455;43.430;23.136;2023-04-10T11:53:18;98330.78;;;13.85;60.76
46722;BME280;32455;43.430;23.136;2023-04-10T11:56:04;98329.88;;;14.08;62.79
46722;BME280;32455;43.430;23.136;2023-04-10T11:58:51;98298.00;;;13.93;61.50
46722;BME280;32455;43.430;23.136;2023-04-10T12:01:39;98325.22;;;13.91;61.61
46722;BME280;32455;43.430;23.136;2023-04-10T12:04:25;98299.56;;;13.77;59.33
46722;BME280;32455;43.430;23.136;2023-04-10T12:07:10;98308.56;;;13.83;60.09
46722;BME280;32455;43.430;23.136;2023-04-10T12:09:58;98316.38;;;13.79;58.55
46722;BME280;32455;43.430;23.136;2023-04-10T12:12:43;98295.72;;;13.61;59.49
46722;BME280;32455;43.430;23.136;2023-04-10T12:15:28;98281.34;;;13.84;61.57
46722;BME280;32455;43.430;23.136;2023-04-10T12:18:14;98302.47;;;14.16;57.98
46722;BME280;32455;43.430;23.136;2023-04-10T12:21:00;98294.97;;;14.35;56.71
46722;BME280;32455;43.430;23.136;2023-04-10T12:23:46;98279.56;;;14.35;57.37
46722;BME280;32455;43.430;23.136;2023-04-10T12:26:31;98278.50;;;14.36;54.65
46722;BME280;32455;43.430;23.136;2023-04-10T12:29:16;98284.78;;;14.70;57.07
46722;BME280;32455;43.430;23.136;2023-04-10T12:32:08;98276.59;;;14.65;51.41
46722;BME280;32455;43.430;23.136;2023-04-10T12:34:56;98267.25;;;14.56;54.98
46722;BME280;32455;43.430;23.136;2023-04-10T12:37:51;98269.63;;;14.69;56.61
46722;BME280;32455;43.430;23.136;2023-04-10T12:40:58;98248.09;;;14.46;53.94
46722;BME280;32455;43.430;23.136;2023-04-10T12:43:43;98258.63;;;14.59;55.76
46722;BME280;32455;43.430;23.136;2023-04-10T12:46:29;98249.31;;;14.38;55.84
46722;BME280;32455;43.430;23.136;2023-04-10T12:49:16;98218.38;;;14.29;57.81
46722;BME280;32455;43.430;23.136;2023-04-10T12:52:02;98255.34;;;14.57;55.71
46722;BME280;32455;43.430;23.136;2023-04-10T12:54:47;98251.94;;;14.33;55.43
46722;BME280;32455;43.430;23.136;2023-04-10T12:57:32;98243.88;;;14.50;56.79
46722;BME280;32455;43.430;23.136;2023-04-10T13:00:18;98228.53;;;14.22;54.67
46722;BME280;32455;43.430;23.136;2023-04-10T13:03:02;98232.47;;;14.48;53.83
46722;BME280;32455;43.430;23.136;2023-04-10T13:05:48;98234.03;;;14.44;55.41
46722;BME280;32455;43.430;23.136;2023-04-10T13:08:35;98229.28;;;14.51;56.02
46722;BME280;32455;43.430;23.136;2023-04-10T13:11:20;98231.50;;;14.54;53.45
46722;BME280;32455;43.430;23.136;2023-04-10T13:14:07;98197.00;;;14.44;54.69
46722;BME280;32455;43.430;23.136;2023-04-10T13:16:53;98215.84;;;14.39;54.01
46722;BME280;32455;43.430;23.136;2023-04-10T13:19:38;98228.19;;;14.18;53.52
46722;BME280;32455;43.430;23.136;2023-04-10T13:22:24;98224.03;;;14.44;55.48
46722;BME280;32455;43.430;23.136;2023-04-10T13:25:10;98205.06;;;14.56;54.20
46722;BME280;32455;43.430;23.136;2023-04-10T13:27:55;98219.78;;;14.82;53.32
46722;BME280;32455;43.430;23.136;2023-04-10T13:30:41;98202.47;;;14.83;54.06
46722;BME280;32455;43.430;23.136;2023-04-10T13:33:26;98209.19;;;14.81;53.39
46722;BME280;32455;43.430;23.136;2023-04-10T13:36:12;98213.22;;;14.78;55.12
46722;BME280;32455;43.430;23.136;2023-04-10T13:38:58;98202.59;;;14.93;55.53
46722;BME280;32455;43.430;23.136;2023-04-10T13:41:43;98208.63;;;14.78;53.09
46722;BME280;32455;43.430;23.136;2023-04-10T13:44:28;98205.44;;;14.48;54.53
46722;BME280;32455;43.430;23.136;2023-04-10T13:47:13;98200.19;;;14.58;53.36
46722;BME280;32455;43.430;23.136;2023-04-10T13:49:59;98192.97;;;15.02;55.48
46722;BME280;32455;43.430;23.136;2023-04-10T13:52:45;98198.56;;;15.40;53.66
46722;BME280;32455;43.430;23.136;2023-04-10T13:55:30;98202.91;;;15.41;51.04
46722;BME280;32455;43.430;23.136;2023-04-10T13:58:16;98191.50;;;15.12;51.98
46722;BME280;32455;43.430;23.136;2023-04-10T14:01:01;98192.41;;;14.62;52.51
46722;BME280;32455;43.430;23.136;2023-04-10T14:03:47;98184.06;;;14.85;52.30
46722;BME280;32455;43.430;23.136;2023-04-10T14:06:33;98189.66;;;14.57;52.84
46722;BME280;32455;43.430;23.136;2023-04-10T14:09:18;98180.66;;;14.73;53.78
46722;BME280;32455;43.430;23.136;2023-04-10T14:12:03;98183.38;;;14.73;53.93
46722;BME280;32455;43.430;23.136;2023-04-10T14:14:49;98179.13;;;14.60;55.66
46722;BME280;32455;43.430;23.136;2023-04-10T14:17:34;98185.13;;;14.62;56.17
46722;BME280;32455;43.430;23.136;2023-04-10T14:20:20;98153.75;;;14.27;57.13
46722;BME280;32455;43.430;23.136;2023-04-10T14:23:05;98170.44;;;13.91;56.43
46722;BME280;32455;43.430;23.136;2023-04-10T14:25:51;98175.91;;;14.46;55.91
46722;BME280;32455;43.430;23.136;2023-04-10T14:28:36;98172.31;;;14.74;56.60
46722;BME280;32455;43.430;23.136;2023-04-10T14:31:21;98173.66;;;14.55;54.54
46722;BME280;32455;43.430;23.136;2023-04-10T14:34:06;98181.00;;;14.60;53.91
46722;BME280;32455;43.430;23.136;2023-04-10T14:36:50;98175.19;;;14.34;53.46
46722;BME280;32455;43.430;23.136;2023-04-10T14:39:39;98177.56;;;14.64;52.39
46722;BME280;32455;43.430;23.136;2023-04-10T14:42:24;98179.16;;;14.99;52.64
46722;BME280;32455;43.430;23.136;2023-04-10T14:45:11;98177.06;;;15.06;50.99
46722;BME280;32455;43.430;23.136;2023-04-10T14:47:56;98178.31;;;14.98;50.62
46722;BME280;32455;43.430;23.136;2023-04-10T14:50:41;98176.28;;;14.89;52.14
46722;BME280;32455;43.430;23.136;2023-04-10T14:53:27;98180.19;;;14.59;52.57